createdAt,value
2018-04-19T00:01:20.735Z,99.90
2018-04-19T00:03:48.287Z,99.90
2018-04-19T00:06:16.031Z,99.90
2018-04-19T00:08:43.623Z,99.90
2018-04-19T00:11:11.247Z,99.90
2018-04-19T00:13:38.834Z,99.90
2018-04-19T00:16:06.344Z,99.90
2018-04-19T00:18:33.864Z,99.90
2018-04-19T00:21:01.509Z,99.90
2018-04-19T00:23:29.027Z,99.90
2018-04-19T00:25:56.725Z,99.90
2018-04-19T00:28:24.237Z,99.90
2018-04-19T00:30:51.742Z,99.90
2018-04-19T00:33:19.398Z,99.90
2018-04-19T00:35:47.027Z,99.90
2018-04-19T00:38:14.622Z,99.90
2018-04-19T00:40:42.385Z,99.90
2018-04-19T00:43:10.149Z,99.90
2018-04-19T00:45:37.914Z,99.90
2018-04-19T00:48:05.434Z,99.90
2018-04-19T00:50:33.110Z,99.90
2018-04-19T00:53:09.352Z,99.90
2018-04-19T00:55:37.617Z,99.90
2018-04-19T00:58:05.338Z,99.90
2018-04-19T01:00:33.106Z,99.90
2018-04-19T01:03:00.866Z,99.90
2018-04-19T01:05:28.392Z,99.90
2018-04-19T01:07:55.948Z,99.90
2018-04-19T01:10:23.527Z,99.90
2018-04-19T01:12:50.985Z,99.90
2018-04-19T01:15:18.755Z,99.90
2018-04-19T01:17:46.262Z,99.90
2018-04-19T01:20:13.778Z,99.90
2018-04-19T01:22:41.281Z,99.90
2018-04-19T01:25:09.583Z,99.90
2018-04-19T01:27:37.091Z,99.90
2018-04-19T01:30:04.609Z,99.90
2018-04-19T01:32:32.181Z,99.90
2018-04-19T01:34:59.944Z,99.90
2018-04-19T01:37:27.441Z,99.90
2018-04-19T01:39:54.963Z,99.90
2018-04-19T01:42:22.624Z,99.90
2018-04-19T01:44:50.153Z,99.90
2018-04-19T01:47:17.662Z,99.90
2018-04-19T01:49:45.174Z,99.90
2018-04-19T01:52:12.727Z,99.90
2018-04-19T01:54:40.234Z,99.90
2018-04-19T01:57:07.974Z,99.90
2018-04-19T01:59:35.733Z,99.90
2018-04-19T02:02:03.265Z,99.90
2018-04-19T02:04:30.831Z,99.90
2018-04-19T02:06:58.346Z,99.90
2018-04-19T02:09:25.870Z,99.90
2018-04-19T02:11:53.637Z,99.90
2018-04-19T02:14:21.395Z,99.90
2018-04-19T02:16:49.160Z,99.90
2018-04-19T02:19:17.288Z,99.90
2018-04-19T02:21:44.801Z,99.90
2018-04-19T02:24:12.604Z,99.90
2018-04-19T02:26:40.961Z,99.90
2018-04-19T02:29:08.590Z,99.90
2018-04-19T02:31:36.113Z,99.90
2018-04-19T02:34:03.812Z,99.90
2018-04-19T02:36:31.343Z,99.90
2018-04-19T02:38:59.042Z,99.90
2018-04-19T02:41:26.533Z,99.90
2018-04-19T02:43:54.275Z,99.90
2018-04-19T02:46:21.795Z,99.90
2018-04-19T02:48:49.406Z,99.90
2018-04-19T02:51:17.195Z,99.90
2018-04-19T02:53:44.956Z,99.90
2018-04-19T02:56:12.458Z,99.90
2018-04-19T02:58:40.153Z,99.90
2018-04-19T03:01:07.665Z,99.90
2018-04-19T03:03:35.182Z,99.90
2018-04-19T03:06:02.683Z,99.90
2018-04-19T03:08:31.174Z,99.90
2018-04-19T03:10:58.893Z,99.90
2018-04-19T03:13:26.458Z,99.90
2018-04-19T03:15:53.962Z,99.90
2018-04-19T03:18:21.572Z,99.90
2018-04-19T03:20:49.065Z,99.90
2018-04-19T03:23:16.898Z,99.90
2018-04-19T03:25:44.402Z,99.90
2018-04-19T03:28:11.922Z,99.90
2018-04-19T03:30:39.434Z,99.90
2018-04-19T03:33:06.960Z,99.90
2018-04-19T03:35:34.480Z,99.90
2018-04-19T03:38:01.991Z,99.90
2018-04-19T03:40:29.699Z,99.90
2018-04-19T03:42:57.234Z,99.90
2018-04-19T03:45:24.921Z,99.90
2018-04-19T03:47:52.426Z,99.90
2018-04-19T03:50:20.138Z,99.90
2018-04-19T03:52:47.642Z,99.90
2018-04-19T03:55:15.358Z,99.90
2018-04-19T03:57:42.866Z,99.90
2018-04-19T04:00:10.378Z,99.90
2018-04-19T04:02:37.889Z,99.90
2018-04-19T04:05:06.414Z,99.90
2018-04-19T04:07:34.178Z,99.90
2018-04-19T04:10:01.701Z,99.90
2018-04-19T04:12:29.397Z,99.90
2018-04-19T04:14:56.932Z,99.90
2018-04-19T04:17:36.344Z,99.90
2018-04-19T04:20:16.038Z,99.90
2018-04-19T04:22:56.698Z,99.90
2018-04-19T04:25:24.217Z,99.90
2018-04-19T04:27:51.763Z,99.90
2018-04-19T04:30:20.046Z,99.90
2018-04-19T04:32:47.758Z,99.90
2018-04-19T04:35:15.312Z,99.90
2018-04-19T04:37:42.778Z,99.90
2018-04-19T04:40:10.445Z,99.90
2018-04-19T04:42:38.214Z,99.90
2018-04-19T04:45:05.975Z,99.90
2018-04-19T04:47:33.750Z,99.90
2018-04-19T04:50:01.277Z,99.90
2018-04-19T04:52:28.950Z,99.90
2018-04-19T04:54:56.466Z,99.90
2018-04-19T04:57:24.166Z,99.90
2018-04-19T04:59:51.677Z,99.90
2018-04-19T05:02:19.186Z,99.90
2018-04-19T05:04:46.858Z,99.90
2018-04-19T05:07:14.365Z,99.90
2018-04-19T05:09:42.067Z,99.90
2018-04-19T05:12:09.570Z,99.90
2018-04-19T05:14:37.130Z,99.90
2018-04-19T05:17:05.534Z,99.90
2018-04-19T05:19:33.030Z,99.90
2018-04-19T05:22:00.550Z,99.90
2018-04-19T05:24:28.074Z,99.90
2018-04-19T05:26:55.791Z,99.90
2018-04-19T05:29:23.302Z,99.90
2018-04-19T05:31:50.814Z,99.90
2018-04-19T05:34:18.466Z,99.90
2018-04-19T05:36:45.974Z,99.90
2018-04-19T05:39:13.653Z,99.90
2018-04-19T05:41:41.171Z,99.90
2018-04-19T05:44:08.682Z,99.90
2018-04-19T05:46:36.192Z,99.90
2018-04-19T05:49:03.819Z,99.90
2018-04-19T05:51:31.586Z,99.90
2018-04-19T05:53:59.102Z,99.90
2018-04-19T05:56:26.815Z,99.90
2018-04-19T05:58:54.376Z,99.90
2018-04-19T06:01:22.007Z,99.90
2018-04-19T06:03:50.195Z,99.90
2018-04-19T06:06:17.690Z,99.90
2018-04-19T06:08:46.318Z,99.90
2018-04-19T06:11:13.825Z,99.90
2018-04-19T06:13:41.463Z,99.90
2018-04-19T06:16:08.968Z,99.90
2018-04-19T06:18:36.673Z,99.90
2018-04-19T06:21:04.622Z,99.90
2018-04-19T06:23:32.763Z,99.90
2018-04-19T06:26:00.814Z,99.90
2018-04-19T06:28:28.346Z,99.90
2018-04-19T06:30:55.871Z,99.90
2018-04-19T06:33:23.566Z,99.90
2018-04-19T06:35:51.080Z,99.90
2018-04-19T06:38:18.794Z,99.90
2018-04-19T06:40:46.309Z,99.90
2018-04-19T06:43:13.824Z,99.90
2018-04-19T06:45:41.462Z,99.90
2018-04-19T06:48:08.973Z,99.90
2018-04-19T06:50:36.482Z,99.90
2018-04-19T06:53:04.434Z,99.90
2018-04-19T06:55:31.937Z,99.90
2018-04-19T06:57:59.666Z,99.90
2018-04-19T07:00:27.170Z,99.90
2018-04-19T07:02:55.150Z,99.90
2018-04-19T07:05:22.996Z,99.90
2018-04-19T07:07:50.518Z,99.90
2018-04-19T07:10:18.182Z,99.90
2018-04-19T07:12:45.954Z,99.90
2018-04-19T07:15:13.485Z,99.90
2018-04-19T07:17:41.162Z,99.90
2018-04-19T07:20:08.932Z,99.90
2018-04-19T07:22:36.439Z,99.90
2018-04-19T07:25:04.145Z,99.90
2018-04-19T07:27:31.651Z,99.90
2018-04-19T07:29:59.379Z,99.90
2018-04-19T07:32:26.903Z,99.90
2018-04-19T07:34:54.585Z,99.90
2018-04-19T07:37:22.358Z,99.90
2018-04-19T07:39:49.884Z,99.90
2018-04-19T07:42:17.535Z,99.90
2018-04-19T07:44:45.057Z,99.90
2018-04-19T07:47:13.381Z,99.90
2018-04-19T07:49:40.894Z,99.90
2018-04-19T07:52:08.620Z,99.90
2018-04-19T07:54:36.133Z,99.90
2018-04-19T07:57:03.642Z,99.90
2018-04-19T07:59:31.337Z,99.90
2018-04-19T08:01:58.859Z,99.90
2018-04-19T08:04:26.517Z,99.90
2018-04-19T08:06:54.064Z,99.90
2018-04-19T08:09:21.827Z,99.90
2018-04-19T08:11:49.433Z,99.90
2018-04-19T08:14:16.952Z,99.90
2018-04-19T08:16:44.461Z,99.90
2018-04-19T08:19:12.194Z,99.90
2018-04-19T08:21:39.725Z,99.90
2018-04-19T08:24:07.401Z,99.90
2018-04-19T08:26:35.170Z,99.90
2018-04-19T08:29:02.667Z,99.90
2018-04-19T08:31:30.202Z,99.90
2018-04-19T08:33:57.845Z,99.90
2018-04-19T08:36:25.363Z,99.90
2018-04-19T08:38:53.066Z,99.90
2018-04-19T08:41:20.579Z,99.90
2018-04-19T08:43:48.258Z,99.90
2018-04-19T08:46:15.771Z,99.90
2018-04-19T08:48:43.402Z,99.90
2018-04-19T08:51:10.934Z,99.90
2018-04-19T08:53:38.464Z,99.90
2018-04-19T08:56:05.966Z,99.90
2018-04-19T08:58:33.487Z,99.90
2018-04-19T09:01:01.021Z,99.90
2018-04-19T09:03:28.571Z,99.90
2018-04-19T09:05:56.926Z,99.90
2018-04-19T09:08:24.444Z,99.90
2018-04-19T09:10:51.950Z,99.90
2018-04-19T09:13:19.471Z,99.90
2018-04-19T09:15:47.027Z,99.90
2018-04-19T09:18:14.799Z,99.90
2018-04-19T09:20:42.585Z,99.90
2018-04-19T09:23:10.128Z,99.90
2018-04-19T09:25:37.798Z,99.90
2018-04-19T09:28:05.342Z,99.90
2018-04-19T09:30:32.854Z,99.90
2018-04-19T09:33:00.361Z,99.90
2018-04-19T09:35:27.941Z,99.90
2018-04-19T09:37:55.704Z,99.90
2018-04-19T09:40:23.481Z,99.90
2018-04-19T09:42:51.006Z,99.90
2018-04-19T09:45:18.558Z,99.90
2018-04-19T09:47:46.066Z,99.90
2018-04-19T09:50:13.575Z,99.90
2018-04-19T09:52:41.087Z,99.90
2018-04-19T09:55:08.603Z,99.90
2018-04-19T09:57:36.243Z,99.90
2018-04-19T10:00:04.664Z,99.90
2018-04-19T10:02:35.178Z,99.90
2018-04-19T10:05:02.702Z,99.90
2018-04-19T10:07:30.206Z,99.90
2018-04-19T10:09:57.854Z,99.90
2018-04-19T10:12:25.357Z,99.90
2018-04-19T10:14:52.878Z,99.90
2018-04-19T10:17:20.536Z,99.90
2018-04-19T10:19:48.041Z,99.90
2018-04-19T10:22:15.549Z,99.90
2018-04-19T10:24:43.185Z,99.90
2018-04-19T10:27:10.974Z,99.90
2018-04-19T10:29:38.482Z,99.90
2018-04-19T10:32:06.199Z,99.90
2018-04-19T10:34:33.715Z,99.90
2018-04-19T10:37:01.419Z,99.90
2018-04-19T10:39:28.938Z,99.90
2018-04-19T10:41:56.653Z,99.90
2018-04-19T10:44:24.163Z,99.90
2018-04-19T10:46:52.609Z,99.90
2018-04-19T10:49:21.180Z,99.90
2018-04-19T10:51:48.695Z,99.90
2018-04-19T10:54:16.379Z,99.90
2018-04-19T10:56:44.137Z,99.90
2018-04-19T10:59:11.646Z,99.90
2018-04-19T11:01:39.539Z,99.90
2018-04-19T11:04:07.090Z,99.90
2018-04-19T11:06:34.607Z,99.90
2018-04-19T11:09:02.347Z,99.90
2018-04-19T11:11:30.122Z,99.90
2018-04-19T11:13:59.353Z,99.90
2018-04-19T11:16:27.792Z,99.90
2018-04-19T11:18:55.329Z,99.90
2018-04-19T11:21:22.857Z,99.90
2018-04-19T11:23:50.460Z,99.90
2018-04-19T11:26:17.990Z,99.90
2018-04-19T11:28:45.679Z,99.90
2018-04-19T11:31:14.006Z,99.90
2018-04-19T11:33:41.510Z,99.90
2018-04-19T11:36:09.034Z,99.90
2018-04-19T11:38:36.733Z,99.90
2018-04-19T11:41:04.267Z,99.90
2018-04-19T11:43:31.770Z,99.90
2018-04-19T11:45:59.405Z,99.90
2018-04-19T11:48:27.187Z,99.90
2018-04-19T11:50:54.923Z,99.90
2018-04-19T11:53:22.703Z,99.90
2018-04-19T11:55:50.218Z,99.90
2018-04-19T11:58:17.735Z,99.90
2018-04-19T12:00:45.238Z,99.90
2018-04-19T12:03:12.745Z,99.90
2018-04-19T12:05:40.263Z,99.90
2018-04-19T12:08:07.799Z,99.90
2018-04-19T12:10:36.085Z,99.90
2018-04-19T12:13:03.671Z,99.90
2018-04-19T12:15:31.178Z,99.90
2018-04-19T12:17:59.446Z,99.90
2018-04-19T12:20:26.956Z,99.90
2018-04-19T12:22:54.476Z,99.90
2018-04-19T12:25:23.019Z,99.90
2018-04-19T12:27:50.778Z,99.90
2018-04-19T12:30:18.291Z,99.90
2018-04-19T12:32:45.811Z,99.90
2018-04-19T12:35:13.324Z,99.90
2018-04-19T12:37:41.073Z,99.90
2018-04-19T12:40:08.548Z,99.90
2018-04-19T12:42:36.101Z,99.90
2018-04-19T12:45:03.891Z,99.90
2018-04-19T12:47:31.407Z,99.90
2018-04-19T12:49:59.096Z,99.90
2018-04-19T12:52:26.594Z,99.90
2018-04-19T12:54:54.154Z,99.90
2018-04-19T12:57:21.798Z,99.90
2018-04-19T12:59:49.307Z,99.90
2018-04-19T13:02:16.987Z,99.90
2018-04-19T13:04:44.490Z,99.90
2018-04-19T13:07:12.226Z,99.90
2018-04-19T13:09:39.751Z,99.90
2018-04-19T13:12:07.453Z,99.90
2018-04-19T13:14:34.968Z,99.90
2018-04-19T13:17:02.479Z,99.90
2018-04-19T13:19:30.134Z,99.90
2018-04-19T13:21:57.901Z,99.90
2018-04-19T13:24:25.426Z,99.90
2018-04-19T13:26:53.115Z,99.90
2018-04-19T13:29:20.615Z,99.90
2018-04-19T13:31:48.125Z,99.90
2018-04-19T13:34:15.676Z,99.90
2018-04-19T13:36:43.249Z,99.90
2018-04-19T13:39:10.767Z,99.90
2018-04-19T13:41:38.464Z,99.90
2018-04-19T13:44:06.233Z,99.90
2018-04-19T13:46:33.998Z,99.90
2018-04-19T13:49:01.782Z,99.90
2018-04-19T13:51:29.304Z,99.90
2018-04-19T13:53:56.963Z,99.90
2018-04-19T13:56:24.450Z,99.90
2018-04-19T13:58:52.221Z,99.90
2018-04-19T14:01:19.683Z,99.90
2018-04-19T14:03:47.416Z,99.90
2018-04-19T14:06:15.053Z,99.90
2018-04-19T14:08:42.634Z,99.40
2018-04-19T14:11:10.406Z,99.40
2018-04-19T14:13:37.933Z,98.90
2018-04-19T14:16:05.614Z,98.40
2018-04-19T14:18:33.123Z,99.00
2018-04-19T14:21:00.630Z,98.30
2018-04-19T14:23:28.323Z,98.20
2018-04-19T14:25:56.035Z,98.40
2018-04-19T14:28:23.822Z,96.90
2018-04-19T14:30:51.583Z,96.80
2018-04-19T14:33:19.812Z,96.50
2018-04-19T14:35:48.120Z,96.40
2018-04-19T14:38:15.805Z,96.40
2018-04-19T14:40:43.333Z,95.10
2018-04-19T14:43:10.994Z,94.50
2018-04-19T14:45:38.506Z,94.60
2018-04-19T14:48:06.229Z,94.90
2018-04-19T14:50:34.002Z,94.40
2018-04-19T14:53:01.546Z,94.30
2018-04-19T14:55:29.130Z,93.90
2018-04-19T14:57:57.342Z,93.40
2018-04-19T15:00:25.058Z,93.00
2018-04-19T15:02:52.830Z,93.30
2018-04-19T15:05:20.363Z,93.90
2018-04-19T15:07:48.017Z,94.00
2018-04-19T15:10:15.536Z,93.70
2018-04-19T15:12:43.059Z,93.10
2018-04-19T15:15:10.563Z,92.70
2018-04-19T15:17:39.097Z,91.60
2018-04-19T15:20:06.861Z,91.50
2018-04-19T15:22:34.365Z,91.60
2018-04-19T15:25:02.310Z,90.70
2018-04-19T15:27:29.807Z,90.50
2018-04-19T15:29:57.324Z,91.00
2018-04-19T15:32:24.846Z,90.90
2018-04-19T15:34:52.518Z,89.10
2018-04-19T15:37:20.035Z,90.40
2018-04-19T15:39:47.546Z,89.30
2018-04-19T15:42:15.207Z,89.50
2018-04-19T15:44:42.852Z,89.60
2018-04-19T15:47:10.394Z,90.00
2018-04-19T15:49:37.906Z,88.70
2018-04-19T15:52:05.711Z,89.60
2018-04-19T15:54:33.354Z,89.30
2018-04-19T15:57:01.035Z,88.90
2018-04-19T15:59:28.634Z,88.20
2018-04-19T16:01:56.448Z,86.30
2018-04-19T16:04:24.142Z,84.40
2018-04-19T16:06:51.657Z,81.30
2018-04-19T16:09:19.377Z,80.30
2018-04-19T16:11:52.853Z,77.40
2018-04-19T16:14:14.642Z,75.40
2018-04-19T16:16:42.347Z,75.00
2018-04-19T16:19:09.858Z,73.80
2018-04-19T16:21:37.540Z,72.70
2018-04-19T16:24:05.973Z,72.30
2018-04-19T16:26:33.499Z,73.70
2018-04-19T16:29:01.451Z,75.10
2018-04-19T16:31:28.934Z,76.70
2018-04-19T16:33:56.441Z,78.00
2018-04-19T16:36:23.958Z,79.00
2018-04-19T16:38:51.708Z,80.30
2018-04-19T16:41:19.209Z,81.20
2018-04-19T16:43:47.975Z,82.80
2018-04-19T16:46:15.515Z,82.70
2018-04-19T16:48:43.014Z,82.90
2018-04-19T16:51:10.732Z,83.40
2018-04-19T16:53:38.489Z,83.90
2018-04-19T16:56:06.028Z,84.70
2018-04-19T16:58:33.693Z,88.00
2018-04-19T17:01:01.711Z,85.80
2018-04-19T17:03:29.568Z,87.80
2018-04-19T17:05:57.085Z,87.80
2018-04-19T17:08:24.581Z,91.80
2018-04-19T17:10:52.318Z,91.20
2018-04-19T17:13:19.826Z,91.70
2018-04-19T17:15:48.098Z,91.60
2018-04-19T17:18:15.763Z,91.60
2018-04-19T17:20:43.582Z,91.70
2018-04-19T17:23:11.095Z,92.40
2018-04-19T17:25:38.799Z,91.70
2018-04-19T17:28:06.333Z,92.90
2018-04-19T17:30:33.881Z,90.90
2018-04-19T17:33:02.364Z,91.40
2018-04-19T17:35:29.902Z,91.50
2018-04-19T17:37:57.621Z,92.10
2018-04-19T17:40:25.157Z,91.60
2018-04-19T17:42:52.655Z,92.60
2018-04-19T17:45:21.153Z,92.70
2018-04-19T17:47:48.706Z,91.60
2018-04-19T17:50:17.215Z,92.60
2018-04-19T17:52:45.502Z,91.80
2018-04-19T17:55:13.203Z,92.10
2018-04-19T17:57:40.966Z,92.80
2018-04-19T18:00:08.476Z,92.00
2018-04-19T18:02:35.992Z,93.40
2018-04-19T18:05:03.515Z,93.00
2018-04-19T18:07:31.276Z,93.10
2018-04-19T18:09:58.766Z,93.10
2018-04-19T18:12:26.331Z,94.00
2018-04-19T18:14:53.954Z,93.70
2018-04-19T18:17:21.446Z,94.20
2018-04-19T18:19:48.967Z,93.80
2018-04-19T18:22:16.475Z,93.80
2018-04-19T18:24:43.982Z,93.80
2018-04-19T18:27:11.951Z,94.10
2018-04-19T18:29:39.467Z,94.10
2018-04-19T18:32:06.984Z,94.20
2018-04-19T18:34:34.510Z,95.30
2018-04-19T18:37:02.024Z,96.30
2018-04-19T18:39:29.595Z,96.20
2018-04-19T18:41:57.110Z,95.50
2018-04-19T18:44:24.760Z,96.90
2018-04-19T18:46:52.303Z,97.30
2018-04-19T18:49:19.795Z,97.00
2018-04-19T18:51:47.310Z,97.10
2018-04-19T18:54:15.582Z,99.30
2018-04-19T18:56:43.307Z,99.30
2018-04-19T18:59:11.181Z,99.10
2018-04-19T19:01:39.010Z,98.90
2018-04-19T19:04:06.539Z,99.10
2018-04-19T19:06:39.765Z,99.00
2018-04-19T19:09:07.391Z,99.10
2018-04-19T19:11:34.881Z,99.30
2018-04-19T19:14:02.438Z,99.70
2018-04-19T19:16:29.949Z,99.90
2018-04-19T19:19:24.032Z,99.90
2018-04-19T19:21:51.701Z,99.90
2018-04-19T19:24:19.210Z,99.90
2018-04-19T19:26:46.911Z,99.90
2018-04-19T19:29:15.291Z,99.90
2018-04-19T19:31:43.047Z,99.90
2018-04-19T19:34:13.326Z,99.90
2018-04-19T19:36:40.859Z,99.90
2018-04-19T19:39:08.360Z,99.90
2018-04-19T19:41:35.926Z,99.90
2018-04-19T19:44:03.450Z,99.90
2018-04-19T19:46:30.971Z,99.90
2018-04-19T19:48:59.271Z,99.90
2018-04-19T19:51:26.978Z,99.90
2018-04-19T19:53:56.057Z,99.90
2018-04-19T19:56:23.558Z,99.90
2018-04-19T19:58:51.854Z,99.90
2018-04-19T20:01:19.438Z,99.90
2018-04-19T20:03:46.941Z,99.90
2018-04-19T20:06:14.527Z,99.90
2018-04-19T20:08:42.038Z,99.90
2018-04-19T20:11:09.566Z,99.90
2018-04-19T20:13:37.126Z,99.90
2018-04-19T20:16:04.640Z,99.90
2018-04-19T20:18:32.282Z,99.90
2018-04-19T20:20:59.804Z,99.90
2018-04-19T20:23:27.317Z,99.90
2018-04-19T20:25:55.021Z,99.90
2018-04-19T20:28:22.813Z,99.90
2018-04-19T20:30:50.341Z,99.90
2018-04-19T20:33:18.039Z,99.90
2018-04-19T20:35:45.565Z,99.90
2018-04-19T20:38:13.261Z,99.90
2018-04-19T20:40:40.769Z,99.90
2018-04-19T20:43:08.301Z,99.90
2018-04-19T20:45:36.854Z,99.90
2018-04-19T20:48:04.613Z,99.90
2018-04-19T20:50:32.140Z,99.90
2018-04-19T20:52:59.658Z,99.90
2018-04-19T20:55:27.168Z,99.90
2018-04-19T20:57:54.684Z,99.90
2018-04-19T21:00:22.188Z,99.90
2018-04-19T21:02:49.918Z,99.90
2018-04-19T21:05:17.868Z,99.90
2018-04-19T21:07:45.482Z,99.90
2018-04-19T21:10:12.876Z,99.90
2018-04-19T21:12:40.415Z,99.90
2018-04-19T21:15:07.918Z,99.90
2018-04-19T21:17:35.438Z,99.90
2018-04-19T21:20:02.959Z,99.90
2018-04-19T21:22:30.543Z,99.90
2018-04-19T21:24:58.075Z,99.90
2018-04-19T21:27:25.633Z,99.90
2018-04-19T21:29:53.222Z,99.90
2018-04-19T21:32:20.721Z,99.90
2018-04-19T21:34:48.409Z,99.90
2018-04-19T21:37:15.931Z,99.90
2018-04-19T21:39:43.448Z,99.90
2018-04-19T21:42:11.091Z,99.90
2018-04-19T21:44:38.603Z,99.90
2018-04-19T21:47:06.104Z,99.90
2018-04-19T21:49:33.621Z,99.90
2018-04-19T21:52:01.907Z,99.90
2018-04-19T21:54:29.417Z,99.90
2018-04-19T21:56:56.928Z,99.90
2018-04-19T21:59:25.225Z,99.90
2018-04-19T22:01:52.924Z,99.90
2018-04-19T22:04:20.430Z,99.90
2018-04-19T22:06:48.054Z,99.90
2018-04-19T22:09:15.562Z,99.90
2018-04-19T22:11:43.062Z,99.90
2018-04-19T22:14:10.582Z,99.90
2018-04-19T22:16:38.275Z,99.90
2018-04-19T22:19:06.033Z,99.90
2018-04-19T22:21:33.540Z,99.90
2018-04-19T22:24:01.050Z,99.90
2018-04-19T22:26:28.705Z,99.90
2018-04-19T22:28:56.210Z,99.90
2018-04-19T22:31:23.716Z,99.90
2018-04-19T22:33:51.359Z,99.90
2018-04-19T22:36:18.866Z,99.90
2018-04-19T22:38:47.908Z,99.90
2018-04-19T22:41:15.599Z,99.90
2018-04-19T22:43:43.110Z,99.90
2018-04-19T22:46:10.617Z,99.90
2018-04-19T22:48:38.188Z,99.90
2018-04-19T22:51:05.708Z,99.90
2018-04-19T22:53:33.502Z,99.90
2018-04-19T22:56:01.258Z,99.90
2018-04-19T22:58:29.030Z,99.90
2018-04-19T23:00:56.560Z,99.90
2018-04-19T23:03:24.661Z,99.90
2018-04-19T23:05:52.185Z,99.90
2018-04-19T23:08:19.745Z,99.90
2018-04-19T23:10:47.530Z,99.90
2018-04-19T23:13:15.027Z,99.90
2018-04-19T23:15:42.758Z,99.90
2018-04-19T23:18:10.263Z,99.90
2018-04-19T23:20:38.704Z,99.90
2018-04-19T23:23:06.330Z,99.90
2018-04-19T23:25:33.861Z,99.90
2018-04-19T23:28:01.433Z,99.90
2018-04-19T23:30:29.054Z,99.90
2018-04-19T23:32:56.522Z,99.90
2018-04-19T23:35:24.669Z,99.90
2018-04-19T23:37:52.289Z,99.90
2018-04-19T23:40:19.805Z,99.90
2018-04-19T23:42:47.570Z,99.90
2018-04-19T23:45:15.852Z,99.90
2018-04-19T23:47:43.386Z,99.90
2018-04-19T23:50:10.903Z,99.90
2018-04-19T23:52:38.593Z,99.90
2018-04-19T23:55:06.111Z,99.90
2018-04-19T23:57:33.658Z,99.90
